Time;durP1;ratioP1;P1;durP2;ratioP2;P2;SDS_P1;SDS_P2;PMS_P1;PMS_P2;Temp;Humidity;BMP_temperature;BMP_pressure;BME280_temperature;BME280_humidity;BME280_pressure;Samples;Min_cycle;Max_cycle;Signal;HPM_P1;HPM_P2
2022/10/29 00:09:48;;;;;;;12.30;6.57;;;;;;;11.95;70.19;100646.66;30856962;28;107477;-73
2022/10/29 00:24:49;;;;;;;10.90;5.93;;;;;;;11.97;70.37;100652.63;30855370;28;109571;-74
2022/10/29 00:39:49;;;;;;;9.35;5.53;;;;;;;11.90;70.55;100640.94;30853961;28;96743;-70
2022/10/29 00:54:52;;;;;;;13.95;6.65;;;;;;;11.85;70.40;100626.25;30853510;28;116549;-70
2022/10/29 01:09:52;;;;;;;12.60;6.37;;;;;;;11.95;71.17;100635.97;30857557;28;96632;-72
2022/10/29 01:25:11;;;;;;;12.27;6.72;;;;;;;12.12;71.26;100634.91;30872847;28;97650;-71
2022/10/29 01:40:24;;;;;;;10.93;7.10;;;;;;;12.24;70.83;100639.94;30871257;28;96795;-69
2022/10/29 01:55:30;;;;;;;13.23;7.17;;;;;;;12.22;70.63;100641.91;30869947;28;96691;-70
2022/10/29 02:10:43;;;;;;;11.83;7.40;;;;;;;12.22;71.51;100644.59;30867939;28;97705;-69
2022/10/29 02:25:43;;;;;;;11.67;7.07;;;;;;;12.22;70.91;100628.56;30866367;28;96795;-72
2022/10/29 02:40:44;;;;;;;10.50;6.00;;;;;;;12.12;71.52;100618.91;30864314;28;96826;-71
2022/10/29 02:55:44;;;;;;;10.77;6.60;;;;;;;11.83;71.64;100596.22;30863448;28;97316;-69
2022/10/29 03:10:44;;;;;;;16.83;6.68;;;;;;;11.84;72.14;100608.56;30861893;28;106895;-70
2022/10/29 03:25:51;;;;;;;10.65;5.82;;;;;;;11.95;73.19;100614.59;30859865;28;96699;-69
2022/10/29 03:40:51;;;;;;;11.40;5.07;;;;;;;12.19;72.52;100619.91;30857582;28;97511;-68
2022/10/29 03:55:52;;;;;;;6.97;4.47;;;;;;;12.48;72.68;100631.84;30856605;28;96709;-73
2022/10/29 04:10:52;;;;;;;11.23;4.90;;;;;;;12.57;72.36;100650.53;30856272;28;97480;-72
2022/10/29 04:25:55;;;;;;;9.00;4.38;;;;;;;12.67;72.32;100661.84;30855968;28;97606;-69
2022/10/29 04:41:00;;;;;;;8.90;5.00;;;;;;;12.47;72.15;100678.28;30853996;28;96761;-68
2022/10/29 04:56:02;;;;;;;8.43;4.77;;;;;;;12.47;72.51;100683.63;30874971;28;96712;-68
2022/10/29 05:11:03;;;;;;;8.30;4.60;;;;;;;12.43;72.20;100698.31;30871957;28;97589;-70
2022/10/29 05:26:04;;;;;;;9.20;4.37;;;;;;;12.49;72.29;100694.97;30870502;28;97335;-70
2022/10/29 05:41:04;;;;;;;10.05;4.55;;;;;;;12.42;72.10;100719.88;30870300;28;96867;-71
2022/10/29 05:56:05;;;;;;;8.73;4.22;;;;;;;12.58;72.57;100732.38;30867238;28;96736;-70
2022/10/29 06:11:05;;;;;;;10.68;5.00;;;;;;;12.96;72.12;100745.97;30864242;28;97274;-68
2022/10/29 06:26:06;;;;;;;6.95;3.55;;;;;;;13.59;71.90;100752.25;30862672;28;102381;-71
2022/10/29 06:41:06;;;;;;;9.75;4.93;;;;;;;14.46;70.79;100775.22;30863679;28;97964;-74
2022/10/29 06:56:06;;;;;;;9.70;5.07;;;;;;;14.68;69.21;100783.38;30861270;28;109055;-74
2022/10/29 07:11:07;;;;;;;10.55;5.63;;;;;;;15.20;68.79;100782.50;30859777;28;115200;-69
2022/10/29 07:26:07;;;;;;;9.93;3.97;;;;;;;16.90;66.85;100782.97;30853601;28;116241;-67
2022/10/29 07:41:07;;;;;;;10.43;5.60;;;;;;;17.58;64.52;100778.72;30856361;28;96777;-71
2022/10/29 07:56:07;;;;;;;15.77;4.40;;;;;;;17.65;63.41;100781.47;30590165;28;99750;-69
2022/10/29 08:11:08;;;;;;;9.02;4.13;;;;;;;19.00;62.39;100780.50;30609074;28;101289;-67
2022/10/29 08:26:08;;;;;;;10.02;3.60;;;;;;;22.51;56.28;100793.03;30594873;28;104881;-70
2022/10/29 08:41:46;;;;;;;5.30;3.13;;;;;;;22.15;54.25;100794.84;30608367;28;97290;-71
2022/10/29 08:56:53;;;;;;;11.20;4.10;;;;;;;28.63;45.71;100795.66;30607687;28;98421;-70
2022/10/29 09:12:20;;;;;;;6.30;3.43;;;;;;;28.10;39.84;100809.63;30605784;28;96822;-68
2022/10/29 09:27:47;;;;;;;12.13;3.20;;;;;;;34.37;31.48;100802.31;30602425;28;97536;-62
2022/10/29 09:42:47;;;;;;;9.10;3.50;;;;;;;34.99;26.62;100797.88;30625314;28;97444;-66
2022/10/29 09:57:48;;;;;;;9.73;3.53;;;;;;;32.34;28.72;100796.94;30623056;28;97155;-68
2022/10/29 10:12:49;;;;;;;9.15;3.50;;;;;;;28.88;32.02;100796.69;30622682;28;97115;-65
2022/10/29 10:27:49;;;;;;;8.03;3.40;;;;;;;29.61;32.11;100781.59;30609668;28;97511;-65
2022/10/29 10:42:53;;;;;;;7.85;2.45;;;;;;;38.23;23.76;100768.97;30546386;28;114341;-65
2022/10/29 10:58:03;;;;;;;11.23;2.50;;;;;;;39.88;21.17;100757.78;30488544;28;98562;-64
2022/10/29 11:13:09;;;;;;;9.17;1.90;;;;;;;42.81;17.20;100740.44;30486547;28;97365;-65
2022/10/29 11:28:30;;;;;;;7.50;2.20;;;;;;;42.72;17.14;100740.72;30486182;28;97092;-66
2022/10/29 11:43:32;;;;;;;7.20;2.57;;;;;;;41.90;17.11;100729.72;30569800;28;97754;-65
2022/10/29 11:58:41;;;;;;;7.90;2.20;;;;;;;42.72;16.79;100729.50;30611253;28;97264;-64
2022/10/29 12:13:56;;;;;;;5.90;2.70;;;;;;;41.55;17.67;100701.88;30607498;28;97342;-65
2022/10/29 12:29:07;;;;;;;6.53;2.83;;;;;;;38.02;20.80;100699.50;30614870;28;97157;-65
2022/10/29 12:44:21;;;;;;;6.97;3.73;;;;;;;32.21;26.54;100685.56;30608409;28;98198;-65
2022/10/29 12:59:35;;;;;;;8.37;3.57;;;;;;;30.71;28.93;100701.53;30608169;28;96872;-65
2022/10/29 13:14:52;;;;;;;8.40;3.73;;;;;;;29.55;31.17;100689.41;30625701;28;97236;-65
2022/10/29 13:30:14;;;;;;;11.20;4.10;;;;;;;30.05;33.29;100687.34;30621466;28;97572;-65
2022/10/29 13:45:14;;;;;;;11.63;5.40;;;;;;;30.02;31.83;100674.22;30616939;28;96999;-66
2022/10/29 14:00:18;;;;;;;8.05;4.57;;;;;;;26.95;36.01;100667.34;30594127;28;97430;-67
2022/10/29 14:15:19;;;;;;;9.77;3.70;;;;;;;26.95;37.09;100653.66;30612542;28;98017;-69
2022/10/29 14:30:19;;;;;;;12.73;5.53;;;;;;;24.28;40.88;100649.38;30611220;28;96992;-70
2022/10/29 14:45:24;;;;;;;10.88;6.00;;;;;;;22.87;44.73;100666.22;30615668;28;96958;-70
2022/10/29 15:00:30;;;;;;;17.27;6.10;;;;;;;22.50;46.26;100663.81;30618386;28;97429;-69
2022/10/29 15:15:49;;;;;;;15.03;6.60;;;;;;;21.43;48.77;100657.38;30607910;28;97782;-81
2022/10/29 15:30:49;;;;;;;13.20;5.73;;;;;;;20.28;51.02;100646.28;30607100;28;97004;-76
2022/10/29 15:45:56;;;;;;;18.63;9.37;;;;;;;19.30;53.51;100651.19;30605378;28;97443;-68
2022/10/29 16:00:56;;;;;;;12.23;6.67;;;;;;;18.61;55.57;100648.13;30604075;28;98883;-68
2022/10/29 16:15:56;;;;;;;29.60;16.15;;;;;;;17.94;57.72;100664.41;30604126;28;97573;-70
2022/10/29 16:30:58;;;;;;;22.90;12.15;;;;;;;17.38;59.87;100665.53;30594685;28;97619;-70
2022/10/29 16:45:58;;;;;;;21.17;12.00;;;;;;;17.07;61.61;100656.13;30593605;28;97253;-69
2022/10/29 17:01:07;;;;;;;24.13;13.77;;;;;;;16.87;62.82;100642.59;30592083;28;110708;-72
2022/10/29 17:16:09;;;;;;;23.53;12.23;;;;;;;16.77;63.51;100640.25;30606809;28;97604;-74
2022/10/29 17:31:12;;;;;;;26.63;12.03;;;;;;;16.63;64.71;100641.22;30607545;28;97276;-76
2022/10/29 17:46:13;;;;;;;28.03;14.40;;;;;;;16.46;65.62;100640.69;30603597;28;98507;-68
2022/10/29 18:01:14;;;;;;;29.33;17.10;;;;;;;16.28;66.35;100643.91;30607461;28;97737;-68
2022/10/29 18:16:19;;;;;;;27.77;14.13;;;;;;;16.20;67.16;100640.34;30616467;28;97474;-68
2022/10/29 18:31:23;;;;;;;30.00;16.07;;;;;;;16.23;67.33;100658.75;30621479;28;97496;-69
2022/10/29 18:46:24;;;;;;;27.07;14.00;;;;;;;16.30;67.59;100661.50;30619970;28;97426;-69
2022/10/29 19:01:30;;;;;;;25.75;13.15;;;;;;;16.29;67.77;100657.16;30618984;28;96763;-68
2022/10/29 19:16:31;;;;;;;24.57;13.53;;;;;;;16.29;67.82;100657.16;30618201;28;96749;-66
2022/10/29 19:31:33;;;;;;;29.50;14.80;;;;;;;16.26;68.00;100651.34;30616519;28;97188;-65
2022/10/29 19:46:33;;;;;;;26.97;14.70;;;;;;;16.05;68.20;100640.44;30614974;28;96700;-68
2022/10/29 20:01:33;;;;;;;24.70;13.95;;;;;;;15.57;67.97;100621.44;30612781;28;101843;-68
2022/10/29 20:16:34;;;;;;;30.05;17.25;;;;;;;15.25;68.69;100633.50;30611932;28;96716;-67
2022/10/29 20:31:34;;;;;;;30.52;18.45;;;;;;;14.92;70.12;100632.09;30612346;28;104635;-68
2022/10/29 20:46:35;;;;;;;41.42;21.55;;;;;;;14.87;70.83;100632.66;30609020;28;102998;-65
2022/10/29 21:01:36;;;;;;;35.30;20.27;;;;;;;14.51;70.40;100619.16;30609775;28;97199;-69
2022/10/29 21:16:36;;;;;;;32.88;19.83;;;;;;;14.21;71.87;100608.44;30607543;28;116381;-69
2022/10/29 21:31:36;;;;;;;37.63;21.35;;;;;;;14.13;72.70;100606.66;30617946;28;117420;-69
2022/10/29 21:46:36;;;;;;;32.58;20.00;;;;;;;14.14;73.14;100600.31;30627369;28;106982;-69
2022/10/29 22:01:37;;;;;;;33.60;20.33;;;;;;;14.03;72.94;100614.16;30626610;28;117647;-67
2022/10/29 22:16:37;;;;;;;30.40;18.67;;;;;;;13.95;73.37;100620.41;30625717;28;97420;-65
2022/10/29 22:31:37;;;;;;;37.20;20.20;;;;;;;13.81;73.45;100610.53;30623866;28;98674;-68
2022/10/29 22:46:38;;;;;;;33.05;18.05;;;;;;;13.68;74.22;100589.69;30622208;28;96720;-69
2022/10/29 23:01:38;;;;;;;32.50;17.95;;;;;;;13.54;74.30;100600.22;30621676;28;97101;-69
2022/10/29 23:16:39;;;;;;;31.10;19.55;;;;;;;13.35;74.22;100596.16;30616637;28;97347;-68
2022/10/29 23:31:39;;;;;;;32.80;19.83;;;;;;;13.11;74.82;100599.81;30618532;28;103403;-68
2022/10/29 23:46:39;;;;;;;34.83;19.95;;;;;;;13.03;75.11;100594.50;30615366;28;116777;-70
